Time;durP1;ratioP1;P1;durP2;ratioP2;P2;SDS_P1;SDS_P2;PMS_P1;PMS_P2;Temp;Humidity;BMP_temperature;BMP_pressure;BME280_temperature;BME280_humidity;BME280_pressure;Samples;Min_cycle;Max_cycle;Signal;HPM_P1;HPM_P2
2022/05/03 00:00:10;;;;;;;0.40;0.30;;;11.10;99.90;;;;;;5048106;28;20397;-75
2022/05/03 00:03:06;;;;;;;0.60;0.60;;;11.10;99.90;;;;;;5029762;28;20882;-72
2022/05/03 00:06:01;;;;;;;0.50;0.50;;;11.10;99.90;;;;;;5044965;28;20484;-72
2022/05/03 00:08:28;;;;;;;0.43;0.40;;;11.00;99.90;;;;;;5031412;28;20393;-72
2022/05/03 00:11:13;;;;;;;0.40;0.25;;;11.10;99.90;;;;;;5041792;28;20463;-72
2022/05/03 00:14:13;;;;;;;0.40;0.20;;;11.10;99.90;;;;;;5048786;28;20397;-73
2022/05/03 00:16:40;;;;;;;0.40;0.30;;;11.00;99.90;;;;;;4996798;28;20447;-72
2022/05/03 00:19:06;;;;;;;0.40;0.20;;;11.10;99.90;;;;;;5048866;28;20815;-76
2022/05/03 00:21:36;;;;;;;0.80;0.80;;;11.10;99.90;;;;;;5049368;28;20480;-72
2022/05/03 00:24:06;;;;;;;0.40;0.20;;;11.00;99.90;;;;;;5049739;28;20785;-73
2022/05/03 00:26:33;;;;;;;0.40;0.20;;;11.00;99.90;;;;;;5053374;28;20478;-72
2022/05/03 00:28:59;;;;;;;0.40;0.20;;;10.90;99.90;;;;;;5053184;28;20405;-72
2022/05/03 00:31:26;;;;;;;0.40;0.30;;;11.00;99.90;;;;;;5052192;28;20465;-72
2022/05/03 00:33:57;;;;;;;0.40;0.20;;;10.90;99.90;;;;;;5052933;28;20904;-73
2022/05/03 00:36:23;;;;;;;0.40;0.30;;;10.80;99.90;;;;;;5052635;28;20390;-72
2022/05/03 00:38:50;;;;;;;0.40;0.40;;;10.90;99.90;;;;;;5052591;28;20559;-72
2022/05/03 00:41:36;;;;;;;0.40;0.40;;;10.90;99.90;;;;;;5052161;28;20389;-73
2022/05/03 00:47:29;;;;;;;0.40;0.40;;;11.00;99.90;;;;;;5052078;28;20445;-72
2022/05/03 00:50:26;;;;;;;0.73;0.73;;;11.00;99.90;;;;;;5052973;28;20394;-73
2022/05/03 00:53:02;;;;;;;0.40;0.20;;;11.00;99.90;;;;;;5033698;28;20949;-72
2022/05/03 00:55:40;;;;;;;0.40;0.30;;;10.90;99.90;;;;;;5051175;28;20413;-73
2022/05/03 00:58:25;;;;;;;0.40;0.40;;;10.90;99.90;;;;;;5053152;28;20499;-72
2022/05/03 01:01:08;;;;;;;0.40;0.20;;;10.70;99.90;;;;;;5052414;28;20523;-72
2022/05/03 01:04:11;;;;;;;0.40;0.20;;;10.70;99.90;;;;;;5052356;28;20483;-72
2022/05/03 01:06:44;;;;;;;0.40;0.25;;;10.60;99.90;;;;;;5052829;28;20381;-72
2022/05/03 01:09:10;;;;;;;0.40;0.20;;;10.60;99.90;;;;;;5052535;28;20737;-76
2022/05/03 01:12:00;;;;;;;0.40;0.20;;;10.70;99.90;;;;;;5052533;28;20409;-72
2022/05/03 01:14:50;;;;;;;0.50;0.50;;;10.70;99.90;;;;;;5031901;28;20387;-72
2022/05/03 01:17:29;;;;;;;0.40;0.20;;;10.70;99.90;;;;;;5031920;28;20391;-73
2022/05/03 01:20:08;;;;;;;0.40;0.20;;;10.60;99.90;;;;;;5032541;28;20867;-72
2022/05/03 01:22:40;;;;;;;0.40;0.30;;;10.60;99.90;;;;;;5042100;28;20488;-73
2022/05/03 01:25:30;;;;;;;0.40;0.20;;;10.60;99.90;;;;;;5052097;28;20892;-72
2022/05/03 01:28:23;;;;;;;0.40;0.20;;;10.60;99.90;;;;;;5052087;28;20400;-73
2022/05/03 01:30:50;;;;;;;0.40;0.30;;;10.50;99.90;;;;;;5052442;28;20385;-72
2022/05/03 01:33:36;;;;;;;0.50;0.50;;;10.40;99.90;;;;;;5050928;28;20390;-73
2022/05/03 01:36:05;;;;;;;0.40;0.20;;;10.40;99.90;;;;;;5051358;28;20381;-73
2022/05/03 01:39:00;;;;;;;0.40;0.20;;;10.20;99.90;;;;;;5050649;28;20904;-72
2022/05/03 01:41:41;;;;;;;0.60;0.60;;;10.20;99.90;;;;;;5051095;28;20402;-72
2022/05/03 01:44:13;;;;;;;0.40;0.40;;;10.20;99.90;;;;;;5051993;28;20390;-72
2022/05/03 01:46:39;;;;;;;0.40;0.20;;;10.20;99.90;;;;;;5049677;28;20398;-72
2022/05/03 01:52:38;;;;;;;0.40;0.30;;;10.30;99.90;;;;;;5017909;28;20891;-72
2022/05/03 01:55:39;;;;;;;0.40;0.30;;;10.20;99.90;;;;;;5050352;28;20512;-73
2022/05/03 01:58:05;;;;;;;0.40;0.20;;;10.20;99.90;;;;;;5010326;28;20426;-72
2022/05/03 02:00:35;;;;;;;0.40;0.20;;;10.00;99.90;;;;;;5050548;28;20675;-72
2022/05/03 02:03:14;;;;;;;0.50;0.50;;;10.00;99.90;;;;;;5051748;28;20397;-72
2022/05/03 02:05:42;;;;;;;0.40;0.20;;;10.00;99.90;;;;;;5050427;28;20458;-73
2022/05/03 02:08:17;;;;;;;0.40;0.20;;;9.90;99.90;;;;;;5032845;28;20487;-72
2022/05/03 02:11:10;;;;;;;0.40;0.35;;;9.80;99.90;;;;;;5051216;28;20393;-72
2022/05/03 02:17:07;;;;;;;0.40;0.20;;;9.70;99.90;;;;;;5051243;28;20785;-73
2022/05/03 02:20:03;;;;;;;0.40;0.40;;;9.70;99.90;;;;;;5049951;28;20484;-72
2022/05/03 02:23:08;;;;;;;0.50;0.50;;;9.60;99.90;;;;;;5050123;28;20394;-72
2022/05/03 02:25:42;;;;;;;0.90;0.90;;;9.60;99.90;;;;;;5018688;28;20710;-72
2022/05/03 02:28:39;;;;;;;0.40;0.20;;;9.60;99.90;;;;;;5051135;28;20855;-72
2022/05/03 02:31:07;;;;;;;0.40;0.20;;;9.50;99.90;;;;;;5051227;28;20466;-72
2022/05/03 02:33:44;;;;;;;0.40;0.20;;;9.50;99.90;;;;;;5050013;28;20397;-71
2022/05/03 02:36:15;;;;;;;0.60;0.60;;;9.40;99.90;;;;;;5050761;28;20408;-72
2022/05/03 02:39:05;;;;;;;2.40;1.30;;;9.40;99.90;;;;;;5050162;28;20902;-72
2022/05/03 02:41:39;;;;;;;0.40;0.30;;;9.40;99.90;;;;;;5018726;28;20449;-72
2022/05/03 02:44:06;;;;;;;0.40;0.20;;;9.40;99.90;;;;;;5031022;28;20846;-72
2022/05/03 02:46:56;;;;;;;0.50;0.30;;;9.30;99.90;;;;;;5040887;28;20428;-72
2022/05/03 02:49:54;;;;;;;0.40;0.20;;;9.20;99.90;;;;;;5048234;28;20897;-73
2022/05/03 02:52:40;;;;;;;0.40;0.20;;;9.30;99.90;;;;;;5021178;28;20476;-72
2022/05/03 02:55:22;;;;;;;0.80;0.80;;;9.20;99.90;;;;;;5050319;28;20413;-72
2022/05/03 02:57:53;;;;;;;0.40;0.30;;;9.20;99.90;;;;;;5050503;28;20486;-72
2022/05/03 03:03:31;;;;;;;0.40;0.30;;;9.10;99.90;;;;;;5050243;28;20400;-73
2022/05/03 03:05:59;;;;;;;0.40;0.20;;;9.10;99.90;;;;;;5050404;28;20425;-73
2022/05/03 03:08:39;;;;;;;0.40;0.20;;;9.10;99.90;;;;;;5049685;28;20400;-72
2022/05/03 03:11:07;;;;;;;0.40;0.40;;;9.20;99.90;;;;;;5049844;28;20466;-72
2022/05/03 03:13:45;;;;;;;0.40;0.20;;;9.30;99.90;;;;;;5049894;28;20465;-72
2022/05/03 03:16:13;;;;;;;0.40;0.20;;;9.30;99.90;;;;;;5050027;28;20397;-72
2022/05/03 03:18:43;;;;;;;0.70;0.60;;;9.30;99.90;;;;;;5049238;28;20448;-72
2022/05/03 03:21:12;;;;;;;0.40;0.30;;;9.20;99.90;;;;;;5049829;28;20397;-73
2022/05/03 03:23:40;;;;;;;0.40;0.20;;;9.20;99.90;;;;;;5049707;28;20844;-72
2022/05/03 03:26:06;;;;;;;0.68;0.68;;;9.20;99.90;;;;;;5050175;28;20392;-72
2022/05/03 03:28:35;;;;;;;0.40;0.20;;;9.20;99.90;;;;;;5049349;28;20385;-73
2022/05/03 03:31:05;;;;;;;0.40;0.20;;;9.30;99.90;;;;;;5049671;28;20900;-72
2022/05/03 03:33:34;;;;;;;0.40;0.20;;;9.30;99.90;;;;;;5050222;28;20472;-72
2022/05/03 03:36:03;;;;;;;0.40;0.20;;;9.00;99.90;;;;;;5050328;28;20397;-72
2022/05/03 03:38:37;;;;;;;0.40;0.20;;;9.00;99.90;;;;;;5049610;28;20517;-73
2022/05/03 03:41:03;;;;;;;0.40;0.20;;;8.90;99.90;;;;;;5038649;28;20463;-73
2022/05/03 03:43:30;;;;;;;0.40;0.30;;;9.00;99.90;;;;;;5049713;28;20381;-73
2022/05/03 03:45:56;;;;;;;0.70;0.60;;;8.90;99.90;;;;;;5050602;28;20432;-72
2022/05/03 03:48:21;;;;;;;0.70;0.50;;;8.80;99.90;;;;;;5015444;28;20433;-75
2022/05/03 03:50:48;;;;;;;1.08;1.08;;;8.80;99.90;;;;;;5049843;28;20476;-72
2022/05/03 03:53:17;;;;;;;0.40;0.20;;;8.80;99.90;;;;;;5050254;28;20421;-72
2022/05/03 03:55:44;;;;;;;0.40;0.20;;;8.70;99.90;;;;;;5049685;28;20408;-72
2022/05/03 03:58:10;;;;;;;0.40;0.30;;;8.70;99.90;;;;;;5049762;28;20413;-73
2022/05/03 04:00:36;;;;;;;0.40;0.20;;;8.50;99.90;;;;;;5051369;28;20393;-73
2022/05/03 04:03:04;;;;;;;0.60;0.60;;;8.50;99.90;;;;;;5054029;28;20476;-73
2022/05/03 04:05:32;;;;;;;0.40;0.30;;;8.70;99.90;;;;;;5053201;28;20414;-72
2022/05/03 04:07:57;;;;;;;0.40;0.40;;;8.70;99.90;;;;;;5054392;28;20389;-72
2022/05/03 04:10:23;;;;;;;0.40;0.20;;;8.80;99.90;;;;;;5052995;28;20404;-73
2022/05/03 04:12:49;;;;;;;0.40;0.20;;;8.70;99.90;;;;;;5054519;28;20772;-73
2022/05/03 04:15:15;;;;;;;0.40;0.30;;;8.80;99.90;;;;;;5054129;28;20385;-71
2022/05/03 04:17:42;;;;;;;0.50;0.50;;;8.80;99.90;;;;;;5035626;28;20451;-72
2022/05/03 04:20:08;;;;;;;0.60;0.60;;;8.80;99.90;;;;;;5053460;28;20464;-72
2022/05/03 04:22:34;;;;;;;0.40;0.30;;;8.90;99.90;;;;;;5053498;28;20420;-72
2022/05/03 04:25:02;;;;;;;0.40;0.30;;;8.90;99.90;;;;;;5054430;28;20470;-72
2022/05/03 04:27:28;;;;;;;0.40;0.30;;;8.90;99.90;;;;;;5053366;28;20385;-73
2022/05/03 04:29:55;;;;;;;0.40;0.20;;;8.80;99.90;;;;;;5053340;28;20741;-72
2022/05/03 04:32:21;;;;;;;0.40;0.30;;;8.80;99.90;;;;;;5052303;28;20389;-75
2022/05/03 04:34:48;;;;;;;0.40;0.30;;;8.80;99.90;;;;;;5053452;28;20389;-72
2022/05/03 04:37:13;;;;;;;0.40;0.30;;;8.90;99.90;;;;;;5053790;28;20397;-72
2022/05/03 04:39:39;;;;;;;0.40;0.20;;;8.90;99.90;;;;;;5052842;28;20419;-72
2022/05/03 04:42:05;;;;;;;0.40;0.30;;;9.00;99.90;;;;;;5053132;28;20432;-72
2022/05/03 04:44:31;;;;;;;0.40;0.20;;;8.90;99.90;;;;;;5052380;28;20854;-72
2022/05/03 04:46:57;;;;;;;0.40;0.30;;;8.90;99.90;;;;;;5053007;28;20481;-73
2022/05/03 04:49:23;;;;;;;0.40;0.20;;;8.90;99.90;;;;;;5052411;28;20488;-75
2022/05/03 04:51:49;;;;;;;0.40;0.30;;;8.80;99.90;;;;;;5052514;28;20397;-72
2022/05/03 04:54:15;;;;;;;0.70;0.70;;;8.70;99.90;;;;;;5047599;28;20445;-73
2022/05/03 04:56:49;;;;;;;0.40;0.20;;;8.80;99.90;;;;;;5051570;28;20415;-73
2022/05/03 04:59:15;;;;;;;0.40;0.20;;;8.80;99.90;;;;;;5057270;28;20883;-72
2022/05/03 05:01:41;;;;;;;0.40;0.20;;;8.80;99.90;;;;;;5052350;28;20404;-73
2022/05/03 05:04:06;;;;;;;0.80;0.70;;;8.90;99.90;;;;;;5052276;28;20645;-73
2022/05/03 05:06:32;;;;;;;0.40;0.20;;;9.00;99.90;;;;;;5052235;28;20428;-73
2022/05/03 05:08:58;;;;;;;0.40;0.30;;;9.00;99.90;;;;;;5053226;28;20725;-72
2022/05/03 05:11:23;;;;;;;0.60;0.60;;;9.00;99.90;;;;;;5052117;28;20396;-76
2022/05/03 05:13:50;;;;;;;0.40;0.28;;;9.00;99.90;;;;;;5052289;28;20393;-73
2022/05/03 05:16:15;;;;;;;0.40;0.40;;;9.00;99.90;;;;;;5053023;28;20779;-72
2022/05/03 05:18:41;;;;;;;0.60;0.60;;;9.10;99.90;;;;;;5051664;28;20410;-72
2022/05/03 05:21:07;;;;;;;0.40;0.20;;;9.10;99.90;;;;;;5053207;28;20439;-71
2022/05/03 05:23:32;;;;;;;0.40;0.20;;;9.20;99.90;;;;;;5051260;28;20901;-72
2022/05/03 05:25:58;;;;;;;0.40;0.40;;;9.10;99.90;;;;;;5054143;28;20397;-72
2022/05/03 05:28:24;;;;;;;0.60;0.60;;;9.30;99.90;;;;;;5052444;28;20855;-76
2022/05/03 05:30:51;;;;;;;0.50;0.50;;;9.20;99.90;;;;;;5051307;28;20402;-72
2022/05/03 05:33:18;;;;;;;0.40;0.20;;;9.40;99.90;;;;;;5030165;28;20897;-73
2022/05/03 05:35:43;;;;;;;0.40;0.30;;;9.40;99.90;;;;;;5051553;28;20405;-73
2022/05/03 05:38:13;;;;;;;0.40;0.30;;;9.50;99.90;;;;;;5052525;28;20406;-72
2022/05/03 05:40:39;;;;;;;0.40;0.30;;;9.60;99.90;;;;;;5051825;28;20381;-72
2022/05/03 05:43:05;;;;;;;0.60;0.60;;;9.70;99.90;;;;;;5034812;28;20555;-72
2022/05/03 05:45:30;;;;;;;0.40;0.40;;;9.70;99.90;;;;;;5051292;28;20397;-72
2022/05/03 05:47:57;;;;;;;0.70;0.70;;;9.90;99.90;;;;;;5051340;28;20433;-73
2022/05/03 05:50:23;;;;;;;0.40;0.30;;;9.90;99.90;;;;;;5051842;28;20396;-72
2022/05/03 05:55:33;;;;;;;0.40;0.40;;;10.10;99.90;;;;;;5050981;28;20421;-72
2022/05/03 05:57:59;;;;;;;0.40;0.20;;;10.20;99.90;;;;;;5033599;28;20413;-72
2022/05/03 06:00:25;;;;;;;1.00;0.90;;;10.20;99.90;;;;;;5051389;28;20425;-72
2022/05/03 06:02:51;;;;;;;0.70;0.70;;;10.40;99.90;;;;;;5050550;28;20416;-72
2022/05/03 06:05:16;;;;;;;0.40;0.20;;;10.40;99.90;;;;;;5051456;28;20431;-72
2022/05/03 06:07:42;;;;;;;0.40;0.30;;;10.50;99.90;;;;;;5050900;28;20484;-72
2022/05/03 06:10:08;;;;;;;0.50;0.50;;;10.60;99.90;;;;;;5052212;28;20853;-71
2022/05/03 06:12:34;;;;;;;0.40;0.30;;;10.60;99.90;;;;;;5050735;28;20940;-72
2022/05/03 06:15:00;;;;;;;0.40;0.30;;;10.70;99.90;;;;;;5051096;28;20432;-72
2022/05/03 06:17:26;;;;;;;0.40;0.30;;;10.80;99.90;;;;;;5051790;28;20381;-72
2022/05/03 06:19:52;;;;;;;0.40;0.20;;;10.90;99.90;;;;;;5051385;28;20405;-72
2022/05/03 06:22:17;;;;;;;0.40;0.20;;;11.00;99.90;;;;;;5050144;28;20409;-72
2022/05/03 06:24:47;;;;;;;0.40;0.20;;;11.10;99.90;;;;;;5049305;28;20488;-72
2022/05/03 06:27:13;;;;;;;0.60;0.60;;;11.20;99.90;;;;;;5051355;28;20534;-72
2022/05/03 06:29:39;;;;;;;0.40;0.30;;;11.20;99.90;;;;;;5044954;28;20486;-73
2022/05/03 06:32:05;;;;;;;0.40;0.30;;;11.30;99.90;;;;;;5054093;28;20480;-71
2022/05/03 06:34:31;;;;;;;0.40;0.20;;;11.40;99.90;;;;;;5031332;28;20735;-75
2022/05/03 06:36:58;;;;;;;0.40;0.30;;;11.50;99.90;;;;;;5050352;28;20389;-73
2022/05/03 06:39:24;;;;;;;0.40;0.40;;;11.40;99.90;;;;;;5046987;28;20504;-72
2022/05/03 06:41:49;;;;;;;0.40;0.20;;;11.50;99.90;;;;;;5032881;28;20564;-72
2022/05/03 06:44:16;;;;;;;0.40;0.40;;;11.70;99.90;;;;;;5051486;28;20370;-73
2022/05/03 06:46:42;;;;;;;1.10;0.80;;;11.90;99.90;;;;;;5044906;28;20426;-72
2022/05/03 06:49:10;;;;;;;0.63;0.63;;;11.90;99.90;;;;;;5047474;28;20842;-72
2022/05/03 06:51:37;;;;;;;1.38;1.27;;;12.00;99.90;;;;;;5044720;28;20397;-73
2022/05/03 06:54:03;;;;;;;0.40;0.20;;;12.00;99.90;;;;;;5046877;28;21277;-73
2022/05/03 06:56:35;;;;;;;0.40;0.20;;;12.10;99.90;;;;;;5040072;28;20419;-76
2022/05/03 06:59:02;;;;;;;0.40;0.20;;;12.20;99.90;;;;;;5031396;28;20428;-72
2022/05/03 07:01:28;;;;;;;0.60;0.50;;;12.20;99.90;;;;;;5049782;28;20939;-72
2022/05/03 07:03:54;;;;;;;0.43;0.38;;;12.30;99.90;;;;;;5048634;28;20393;-73
2022/05/03 07:06:21;;;;;;;1.00;1.00;;;12.40;99.90;;;;;;5050585;28;20381;-72
2022/05/03 07:08:48;;;;;;;0.63;0.55;;;12.50;99.90;;;;;;5049766;28;20408;-74
2022/05/03 07:11:15;;;;;;;0.40;0.30;;;12.60;99.90;;;;;;5050515;28;20417;-72
2022/05/03 07:13:41;;;;;;;0.40;0.40;;;12.90;99.90;;;;;;5032512;28;20385;-73
2022/05/03 07:16:06;;;;;;;0.40;0.30;;;13.00;99.90;;;;;;5050866;28;20385;-72
2022/05/03 07:24:01;;;;;;;0.60;0.60;;;13.50;99.90;;;;;;5051089;28;20780;-72
2022/05/03 07:26:27;;;;;;;1.00;1.00;;;13.60;99.90;;;;;;5050438;28;20401;-72
2022/05/03 07:28:53;;;;;;;1.20;0.70;;;13.70;99.90;;;;;;5032358;28;20377;-72
2022/05/03 07:31:20;;;;;;;0.40;0.20;;;13.80;99.90;;;;;;5050491;28;20390;-72
2022/05/03 07:33:48;;;;;;;0.40;0.22;;;13.70;99.90;;;;;;5048976;28;20837;-73
2022/05/03 07:36:14;;;;;;;0.40;0.30;;;13.90;99.90;;;;;;5048264;28;20457;-72
2022/05/03 07:38:40;;;;;;;0.40;0.20;;;13.90;99.90;;;;;;5048972;28;20417;-71
2022/05/03 07:41:07;;;;;;;0.50;0.50;;;14.00;99.90;;;;;;5049799;28;20870;-71
2022/05/03 07:43:33;;;;;;;0.90;0.80;;;14.00;99.90;;;;;;5050424;28;20428;-75
2022/05/03 07:46:01;;;;;;;0.40;0.20;;;14.20;99.90;;;;;;5050440;28;20389;-72
2022/05/03 07:48:27;;;;;;;0.80;0.63;;;14.20;99.90;;;;;;5051056;28;20401;-71
2022/05/03 07:50:53;;;;;;;0.70;0.50;;;14.10;99.90;;;;;;5049894;28;20532;-71
2022/05/03 07:53:19;;;;;;;0.40;0.30;;;14.40;99.90;;;;;;5048807;28;20389;-73
2022/05/03 07:55:46;;;;;;;2.47;2.00;;;14.60;99.90;;;;;;5048380;28;20417;-72
2022/05/03 07:58:13;;;;;;;0.50;0.40;;;14.60;99.90;;;;;;5049302;28;20439;-71
2022/05/03 08:00:39;;;;;;;0.40;0.32;;;14.70;99.90;;;;;;5048029;28;20461;-72
2022/05/03 08:03:05;;;;;;;1.65;0.45;;;14.60;99.90;;;;;;5047396;28;20401;-71
2022/05/03 08:05:31;;;;;;;0.40;0.20;;;14.70;99.90;;;;;;5048689;28;20873;-73
2022/05/03 08:07:57;;;;;;;0.50;0.40;;;14.70;99.90;;;;;;5048374;28;20751;-72
2022/05/03 08:10:23;;;;;;;0.40;0.38;;;14.90;99.90;;;;;;5049645;28;20443;-72
2022/05/03 08:12:52;;;;;;;0.40;0.40;;;14.90;99.90;;;;;;5049053;28;20389;-75
2022/05/03 08:15:18;;;;;;;0.40;0.30;;;14.90;99.90;;;;;;5049095;28;20752;-73
2022/05/03 08:17:44;;;;;;;0.40;0.30;;;15.00;99.90;;;;;;5049776;28;20385;-73
2022/05/03 08:20:11;;;;;;;0.40;0.40;;;15.10;99.90;;;;;;5049196;28;20393;-70
2022/05/03 08:22:37;;;;;;;0.40;0.40;;;15.20;99.90;;;;;;5048866;28;20451;-73
2022/05/03 08:25:03;;;;;;;0.40;0.30;;;15.20;99.90;;;;;;5050385;28;20401;-70
2022/05/03 08:27:30;;;;;;;0.40;0.30;;;15.30;99.90;;;;;;5032709;28;21007;-71
2022/05/03 08:29:56;;;;;;;1.00;0.80;;;15.40;99.90;;;;;;5049673;28;20438;-71
2022/05/03 08:32:22;;;;;;;0.80;0.80;;;15.40;99.90;;;;;;5049670;28;20481;-70
2022/05/03 08:34:48;;;;;;;0.50;0.50;;;15.40;99.90;;;;;;5049080;28;20386;-71
2022/05/03 08:42:42;;;;;;;0.50;0.50;;;15.50;99.90;;;;;;5049782;28;20384;-70
2022/05/03 08:45:09;;;;;;;0.40;0.20;;;15.50;99.90;;;;;;5050045;28;20373;-70
2022/05/03 08:47:36;;;;;;;0.40;0.30;;;15.60;99.90;;;;;;5035396;28;20413;-69
2022/05/03 08:50:10;;;;;;;0.40;0.30;;;15.80;99.90;;;;;;5052934;28;20393;-69
2022/05/03 08:52:39;;;;;;;0.70;0.70;;;15.70;99.90;;;;;;5052085;28;20397;-73
2022/05/03 08:55:06;;;;;;;1.05;1.05;;;15.80;99.90;;;;;;5053086;28;20456;-70
2022/05/03 08:57:32;;;;;;;0.40;0.35;;;15.90;99.90;;;;;;5053494;28;20421;-69
2022/05/03 08:59:59;;;;;;;0.50;0.50;;;15.90;99.90;;;;;;5033024;28;20416;-70
2022/05/03 09:02:25;;;;;;;0.50;0.50;;;16.10;99.90;;;;;;5039877;28;20385;-70
2022/05/03 09:04:51;;;;;;;0.40;0.40;;;15.90;99.90;;;;;;5052616;28;20850;-70
2022/05/03 09:07:22;;;;;;;0.40;0.20;;;15.90;99.90;;;;;;5053035;28;20752;-69
2022/05/03 09:09:50;;;;;;;0.40;0.20;;;16.10;99.90;;;;;;5052940;28;20524;-68
2022/05/03 09:12:30;;;;;;;0.40;0.40;;;16.20;99.90;;;;;;5053774;28;20392;-68
2022/05/03 09:15:00;;;;;;;0.50;0.50;;;16.30;99.90;;;;;;5051091;28;20398;-70
2022/05/03 09:17:38;;;;;;;1.20;1.20;;;16.40;99.90;;;;;;5053040;28;20418;-70
2022/05/03 09:25:49;;;;;;;0.63;0.63;;;16.40;99.90;;;;;;5052412;28;20385;-70
2022/05/03 09:28:16;;;;;;;1.00;0.60;;;16.70;99.90;;;;;;5052568;28;20397;-71
2022/05/03 09:30:47;;;;;;;0.40;0.30;;;16.70;99.90;;;;;;5052459;28;20393;-70
2022/05/03 09:33:20;;;;;;;0.40;0.30;;;16.80;99.90;;;;;;5051172;28;21068;-72
2022/05/03 09:35:48;;;;;;;0.40;0.40;;;16.90;99.90;;;;;;5051814;28;20427;-69
2022/05/03 09:38:14;;;;;;;0.40;0.20;;;17.00;99.90;;;;;;5050253;28;20424;-69
2022/05/03 09:40:43;;;;;;;0.60;0.60;;;17.00;99.90;;;;;;5051077;28;20416;-73
2022/05/03 09:43:09;;;;;;;0.40;0.20;;;17.10;99.90;;;;;;5033308;28;20938;-71
2022/05/03 09:45:36;;;;;;;0.90;0.90;;;17.20;99.90;;;;;;5051552;28;20397;-71
2022/05/03 09:48:02;;;;;;;0.50;0.50;;;17.20;99.90;;;;;;5051536;28;20416;-71
2022/05/03 09:50:39;;;;;;;0.40;0.30;;;17.20;99.90;;;;;;5052367;28;20788;-72
2022/05/03 09:53:19;;;;;;;1.35;1.10;;;17.20;99.90;;;;;;5051127;28;20389;-71
2022/05/03 09:55:48;;;;;;;1.10;1.05;;;17.40;99.90;;;;;;5051652;28;20477;-72
2022/05/03 09:58:16;;;;;;;0.40;0.28;;;17.50;99.90;;;;;;5052303;28;20508;-71
2022/05/03 10:00:46;;;;;;;0.60;0.60;;;17.40;99.90;;;;;;5052225;28;20808;-74
2022/05/03 10:03:13;;;;;;;0.80;0.80;;;17.40;99.90;;;;;;5051757;28;20393;-72
2022/05/03 10:05:41;;;;;;;0.40;0.40;;;17.50;99.90;;;;;;5052005;28;20413;-73
2022/05/03 10:08:11;;;;;;;0.40;0.30;;;17.70;99.90;;;;;;5051778;28;20476;-71
2022/05/03 10:10:40;;;;;;;0.40;0.30;;;17.80;99.80;;;;;;5052054;28;20385;-71
2022/05/03 10:13:06;;;;;;;0.40;0.30;;;18.00;98.40;;;;;;5051102;28;20385;-71
2022/05/03 10:21:19;;;;;;;0.73;0.73;;;18.10;99.00;;;;;;5051852;28;20417;-72
2022/05/03 10:24:04;;;;;;;0.40;0.30;;;18.10;98.10;;;;;;5032751;28;20954;-75
2022/05/03 10:27:05;;;;;;;0.40;0.40;;;18.40;97.20;;;;;;5051824;28;20393;-71
2022/05/03 10:29:36;;;;;;;0.70;0.60;;;18.50;97.50;;;;;;4951208;29;20557;-71
2022/05/03 10:32:08;;;;;;;0.40;0.40;;;18.50;96.60;;;;;;5033176;28;20901;-72
2022/05/03 10:34:42;;;;;;;0.40;0.30;;;18.50;97.50;;;;;;5051420;28;20420;-72
2022/05/03 10:37:13;;;;;;;0.40;0.35;;;18.70;97.60;;;;;;5050767;28;20388;-73
2022/05/03 10:39:48;;;;;;;0.50;0.50;;;19.00;96.30;;;;;;5051140;28;20893;-71
2022/05/03 10:42:15;;;;;;;0.70;0.70;;;19.00;95.60;;;;;;5051545;28;20413;-72
2022/05/03 10:45:07;;;;;;;0.40;0.30;;;19.00;96.70;;;;;;5051076;28;20394;-71
2022/05/03 10:47:50;;;;;;;0.50;0.50;;;19.20;95.20;;;;;;5051068;28;20507;-71
2022/05/03 10:50:15;;;;;;;0.70;0.70;;;18.90;94.50;;;;;;5031386;28;20395;-72
2022/05/03 10:52:45;;;;;;;0.40;0.30;;;19.40;94.90;;;;;;5043718;28;20398;-72
2022/05/03 10:55:14;;;;;;;0.50;0.50;;;19.60;93.10;;;;;;5050983;28;20506;-72
2022/05/03 10:58:20;;;;;;;0.40;0.20;;;19.60;93.80;;;;;;5050920;28;20381;-71
2022/05/03 11:01:17;;;;;;;0.80;0.80;;;19.70;90.10;;;;;;5030779;28;20465;-76
2022/05/03 11:03:52;;;;;;;0.40;0.30;;;19.50;91.60;;;;;;5013530;28;20794;-72
2022/05/03 11:06:22;;;;;;;0.40;0.40;;;19.50;92.60;;;;;;5031108;28;20731;-72
2022/05/03 11:11:42;;;;;;;0.40;0.40;;;19.10;90.70;;;;;;5046955;28;20749;-73
2022/05/03 11:17:01;;;;;;;0.40;0.20;;;18.70;91.80;;;;;;5050098;28;20401;-72
2022/05/03 11:19:27;;;;;;;0.40;0.30;;;18.60;93.50;;;;;;5049770;28;20567;-73
2022/05/03 11:21:55;;;;;;;0.70;0.70;;;18.40;91.80;;;;;;5049922;28;20804;-72
2022/05/03 11:24:22;;;;;;;0.40;0.20;;;18.30;93.50;;;;;;5049858;28;20416;-73
2022/05/03 11:26:50;;;;;;;0.50;0.50;;;18.30;95.00;;;;;;5049153;28;20390;-76
2022/05/03 11:29:17;;;;;;;0.40;0.40;;;18.20;95.20;;;;;;5033096;28;20381;-72
2022/05/03 11:31:47;;;;;;;0.80;0.80;;;18.20;94.10;;;;;;5050859;28;20443;-72
2022/05/03 11:34:13;;;;;;;1.10;0.90;;;18.30;95.50;;;;;;5032283;28;20393;-72
2022/05/03 11:36:44;;;;;;;0.40;0.30;;;18.20;94.80;;;;;;5050636;28;20382;-71
2022/05/03 11:39:13;;;;;;;1.30;1.20;;;18.10;95.50;;;;;;5029231;28;20416;-73
2022/05/03 11:41:39;;;;;;;0.50;0.50;;;18.00;95.10;;;;;;5028151;28;20418;-73
2022/05/03 11:44:05;;;;;;;0.40;0.30;;;17.90;94.90;;;;;;5042151;28;20403;-73
2022/05/03 11:46:32;;;;;;;0.40;0.30;;;17.80;93.60;;;;;;5041012;28;20405;-73
2022/05/03 11:49:08;;;;;;;0.40;0.30;;;17.70;94.20;;;;;;5042530;28;20458;-73
2022/05/03 11:57:13;;;;;;;0.40;0.20;;;17.40;95.40;;;;;;5046575;28;20392;-72
2022/05/03 11:59:40;;;;;;;0.40;0.30;;;17.20;95.30;;;;;;5048729;28;20419;-72
2022/05/03 12:02:17;;;;;;;0.40;0.20;;;17.20;95.80;;;;;;5045033;28;20408;-73
2022/05/03 12:05:20;;;;;;;0.40;0.30;;;17.30;96.30;;;;;;5047012;28;20555;-72
2022/05/03 12:07:56;;;;;;;0.40;0.20;;;17.40;96.30;;;;;;4952518;28;20424;-72
2022/05/03 12:10:35;;;;;;;0.40;0.30;;;17.40;96.00;;;;;;5029856;28;20407;-72
2022/05/03 12:13:16;;;;;;;0.47;0.47;;;17.30;95.60;;;;;;5037501;28;20757;-72
2022/05/03 12:15:50;;;;;;;0.40;0.30;;;17.20;96.50;;;;;;5042343;28;20409;-71
2022/05/03 12:18:20;;;;;;;0.40;0.40;;;17.00;98.20;;;;;;5040353;28;20470;-72
2022/05/03 12:20:53;;;;;;;0.80;0.80;;;17.00;99.70;;;;;;5055093;28;20467;-73
2022/05/03 12:23:22;;;;;;;0.40;0.30;;;17.00;99.90;;;;;;5048741;28;20389;-73
2022/05/03 12:25:56;;;;;;;0.40;0.20;;;16.90;99.90;;;;;;5052645;28;20927;-75
2022/05/03 12:28:45;;;;;;;0.40;0.30;;;16.70;99.90;;;;;;5053484;28;20417;-72
2022/05/03 12:31:12;;;;;;;0.40;0.20;;;16.60;99.90;;;;;;5052825;28;20390;-72
2022/05/03 12:33:44;;;;;;;0.40;0.40;;;16.40;99.90;;;;;;5063772;28;20401;-72
2022/05/03 12:36:10;;;;;;;0.40;0.30;;;16.50;99.90;;;;;;5052848;28;20485;-72
2022/05/03 12:38:49;;;;;;;0.40;0.20;;;16.60;99.90;;;;;;5051943;28;21097;-72
2022/05/03 12:41:28;;;;;;;0.40;0.30;;;16.70;99.90;;;;;;5051173;28;20424;-72
2022/05/03 12:44:03;;;;;;;0.50;0.50;;;16.60;99.90;;;;;;5052715;28;20745;-73
2022/05/03 12:46:29;;;;;;;0.40;0.20;;;16.60;99.90;;;;;;5053859;28;20381;-72
2022/05/03 12:48:55;;;;;;;0.40;0.20;;;16.40;99.90;;;;;;5052913;28;20396;-72
2022/05/03 12:51:22;;;;;;;0.40;0.30;;;16.40;99.90;;;;;;5053385;28;20398;-72
2022/05/03 12:53:48;;;;;;;0.40;0.20;;;16.40;99.90;;;;;;5053396;28;20385;-73
2022/05/03 12:58:59;;;;;;;0.40;0.30;;;16.60;99.90;;;;;;5045396;28;20444;-75
2022/05/03 13:01:25;;;;;;;1.20;0.90;;;16.70;99.90;;;;;;5051600;28;20397;-73
2022/05/03 13:03:51;;;;;;;0.40;0.25;;;16.90;99.90;;;;;;5044921;28;20391;-76
2022/05/03 13:06:20;;;;;;;0.40;0.20;;;17.00;99.90;;;;;;5045915;28;20391;-73
2022/05/03 13:08:47;;;;;;;0.70;0.60;;;17.10;99.90;;;;;;5044310;28;20488;-74
2022/05/03 13:11:13;;;;;;;0.40;0.20;;;17.00;99.90;;;;;;5033328;28;21012;-73
2022/05/03 13:13:39;;;;;;;0.40;0.30;;;17.00;99.90;;;;;;5052283;28;20380;-73
2022/05/03 13:16:05;;;;;;;0.40;0.20;;;17.20;99.90;;;;;;5051446;28;20377;-73
2022/05/03 13:18:31;;;;;;;0.40;0.40;;;16.90;99.90;;;;;;5052177;28;20421;-73
2022/05/03 13:20:57;;;;;;;0.40;0.20;;;17.00;99.90;;;;;;5033498;28;20397;-73
2022/05/03 13:23:23;;;;;;;0.43;0.35;;;17.00;99.90;;;;;;5052220;28;20464;-73
2022/05/03 13:25:48;;;;;;;0.40;0.20;;;17.40;99.90;;;;;;5052127;28;20853;-74
2022/05/03 13:28:15;;;;;;;0.40;0.30;;;17.30;99.90;;;;;;5051311;28;20389;-73
2022/05/03 13:30:42;;;;;;;0.40;0.40;;;17.20;99.90;;;;;;5034358;28;20819;-72
2022/05/03 13:33:08;;;;;;;1.00;0.60;;;17.20;99.90;;;;;;5050683;28;20406;-73
2022/05/03 13:41:02;;;;;;;0.60;0.60;;;17.10;99.90;;;;;;5051270;28;20738;-72
2022/05/03 13:43:28;;;;;;;0.40;0.40;;;17.10;99.90;;;;;;5051855;28;20378;-73
2022/05/03 13:45:55;;;;;;;0.50;0.50;;;17.10;99.90;;;;;;5051225;28;20390;-76
2022/05/03 13:48:20;;;;;;;0.40;0.30;;;17.00;99.90;;;;;;5051354;28;20885;-73
2022/05/03 13:50:46;;;;;;;0.40;0.20;;;17.00;99.90;;;;;;5051452;28;20382;-73
2022/05/03 13:53:12;;;;;;;0.40;0.20;;;17.00;99.90;;;;;;5050840;28;20377;-72
2022/05/03 13:55:39;;;;;;;0.40;0.20;;;16.90;99.80;;;;;;5051639;28;20425;-73
2022/05/03 13:58:11;;;;;;;0.40;0.20;;;16.80;99.90;;;;;;5050613;28;20477;-73
2022/05/03 14:00:39;;;;;;;0.80;0.80;;;16.90;99.90;;;;;;5051639;28;20453;-73
2022/05/03 14:03:12;;;;;;;0.68;0.65;;;17.00;98.90;;;;;;5050580;28;20378;-73
2022/05/03 14:05:39;;;;;;;0.40;0.20;;;17.10;99.90;;;;;;5051391;28;20388;-73